• Join FlightAware (Why Join?)
  • Login
  • US Flag 
Rudolph Flight #1: Arrived! 
08:21PM EST


 

Airport Tracker/Info


-or-


 

Live Flight TrackerFlight Track Log ✈ CTL15 ✈ 16-May-2013 ✈ KMGY - KBKL

Flight Track Log - Related Links

Times and Time Zones

All times are in EDT time to prevent confusion due to time zone crossing. See the CTL15 flight status page for this flight to view local times or setup timezone preferences in your user account.

Time Position Orientation Groundspeed Altitude Reporting Facility
EDT Latitude Longitude Course Direction KTS MPH feet Rate Location/Type
07:41PM 39.5811 -84.2050 43° Northeast 132 152 1,700  Level Indianapolis Center
07:42PM 39.5972 -84.1853 43° Northeast 143 165 2,100 660 Climbing Indianapolis Center
07:43PM 39.6192 -84.1544 47° Northeast 150 173 2,600 600 Climbing Indianapolis Center
07:44PM 39.6519 -84.1119 45° Northeast 157 181 3,200 480 Climbing Indianapolis Center
07:45PM 39.6853 -84.0686 45° Northeast 163 188 3,700 420 Climbing Indianapolis Center
07:46PM 39.7258 -84.0125 47° Northeast 166 191 4,200 420 Climbing Indianapolis Center
07:47PM 39.7481 -83.9786 50° Northeast 166 191 4,600 540 Climbing Indianapolis Center
07:48PM 39.7872 -83.9253 46° Northeast 163 188 5,300 480 Climbing Indianapolis Center
07:49PM 39.8089 -83.8894 52° Northeast 163 188 5,700 420 Climbing Indianapolis Center
07:50PM 39.8375 -83.8456 50° Northeast 161 185 6,200 480 Climbing Indianapolis Center
07:51PM 39.8753 -83.7956 45° Northeast 162 186 6,700 360 Climbing Indianapolis Center
07:52PM 39.9103 -83.7533 43° Northeast 166 191 7,000 120 Climbing Indianapolis Center
07:53PM 39.9522 -83.7069 40° Northeast 183 211 7,000 -60 Level Indianapolis Center
07:54PM 39.9897 -83.6653 40° Northeast 184 212 6,900  Descending Indianapolis Center
07:55PM 40.0278 -83.6211 42° Northeast 188 216 7,000  Climbing Indianapolis Center
07:56PM 40.0622 -83.5819 41° Northeast 183 211 7,000  Level Indianapolis Center
07:57PM 40.1056 -83.5292 43° Northeast 184 212 7,000  Level Indianapolis Center
07:58PM 40.1400 -83.4878 43° Northeast 185 213 7,000  Level Indianapolis Center
07:59PM 40.1789 -83.4433 41° Northeast 185 213 7,000  Level Indianapolis Center
08:00PM 40.2156 -83.3989 43° Northeast 182 209 7,000  Level Indianapolis Center
08:01PM 40.2544 -83.3542 41° Northeast 180 207 7,000  Level Indianapolis Center
08:02PM 40.2969 -83.3058 41° Northeast 180 207 7,000 -60 Level Indianapolis Center
08:03PM 40.3306 -83.2594 46° Northeast 175 201 6,900 -60 Descending Indianapolis Center
08:04PM 40.3661 -83.1975 53° Northeast 180 207 6,900  Level Indianapolis Center
08:05PM 40.3972 -83.1442 53° Northeast 182 209 7,000  Climbing Indianapolis Center
08:06PM 40.4281 -83.0931 52° Northeast 178 205 7,000  Level Indianapolis Center
08:07PM 40.4589 -83.0408 52° Northeast 178 205 7,000  Level Indianapolis Center
08:08PM 40.4886 -82.9886 53° Northeast 178 205 7,000  Level Indianapolis Center
08:09PM 40.5178 -82.9433 50° Northeast 173 199 7,000  Level Indianapolis Center
08:10PM 40.5544 -82.8833 51° Northeast 178 205 7,000  Level Indianapolis Center
08:11PM 40.5847 -82.8308 53° Northeast 178 205 7,000  Level Indianapolis Center
08:12PM 40.6153 -82.7794 52° Northeast 177 204 7,000  Level Indianapolis Center
08:13PM 40.6444 -82.7258 54° Northeast 178 205 7,000  Level Indianapolis Center
08:14PM 40.6750 -82.6764 51° Northeast 174 200 7,000  Level Indianapolis Center
08:15PM 40.7050 -82.6244 53° Northeast 176 203 7,000  Level Indianapolis Center
08:16PM 40.7342 -82.5719 54° Northeast 176 203 7,000  Level Indianapolis Center
08:17PM 40.7528 -82.5483 44° Northeast 175 201 7,000 -360 Level Cleveland Center
08:18PM 40.7828 -82.4917 55° Northeast 187 215 6,500 -540 Descending Cleveland Center